createdAt,value
2018-07-19T00:01:05.862Z,16.70
2018-07-19T00:03:34.662Z,16.60
2018-07-19T00:06:03.479Z,16.60
2018-07-19T00:08:32.288Z,16.60
2018-07-19T00:11:01.098Z,16.60
2018-07-19T00:13:29.915Z,16.50
2018-07-19T00:15:58.727Z,16.50
2018-07-19T00:18:27.514Z,16.50
2018-07-19T00:20:57.525Z,16.50
2018-07-19T00:23:26.723Z,16.50
2018-07-19T00:25:56.645Z,16.40
2018-07-19T00:28:25.821Z,16.40
2018-07-19T00:30:54.643Z,16.30
2018-07-19T00:33:23.445Z,16.30
2018-07-19T00:35:52.498Z,16.40
2018-07-19T00:38:21.495Z,16.30
2018-07-19T00:40:50.327Z,16.30
2018-07-19T00:43:19.165Z,16.30
2018-07-19T00:45:47.984Z,16.20
2018-07-19T00:48:17.042Z,16.20
2018-07-19T00:50:45.854Z,16.30
2018-07-19T00:53:14.646Z,16.20
2018-07-19T00:55:43.456Z,16.10
2018-07-19T00:58:12.257Z,16.10
2018-07-19T01:00:41.062Z,16.10
2018-07-19T01:03:09.853Z,16.10
2018-07-19T01:05:38.678Z,16.00
2018-07-19T01:08:07.484Z,16.10
2018-07-19T01:10:36.314Z,16.00
2018-07-19T01:13:05.775Z,15.90
2018-07-19T01:15:34.582Z,15.90
2018-07-19T01:18:03.389Z,15.90
2018-07-19T01:20:32.206Z,15.90
2018-07-19T01:23:01.023Z,15.90
2018-07-19T01:25:29.819Z,15.80
2018-07-19T01:27:58.635Z,15.80
2018-07-19T01:30:27.452Z,15.80
2018-07-19T01:32:56.282Z,15.70
2018-07-19T01:35:25.098Z,15.70
2018-07-19T01:37:53.910Z,15.70
2018-07-19T01:40:22.718Z,15.70
2018-07-19T01:42:51.534Z,15.70
2018-07-19T01:45:20.337Z,15.70
2018-07-19T01:47:49.160Z,15.60
2018-07-19T01:50:17.974Z,15.60
2018-07-19T01:52:46.790Z,15.50
2018-07-19T01:55:16.427Z,15.50
2018-07-19T01:57:45.243Z,15.60
2018-07-19T02:00:14.558Z,15.50
2018-07-19T02:02:43.298Z,15.50
2018-07-19T02:05:12.099Z,15.50
2018-07-19T02:07:40.918Z,15.50
2018-07-19T02:10:09.739Z,15.50
2018-07-19T02:12:38.542Z,15.50
2018-07-19T02:15:07.359Z,15.50
2018-07-19T02:17:36.171Z,15.40
2018-07-19T02:20:04.995Z,15.40
2018-07-19T02:22:33.803Z,15.30
2018-07-19T02:25:02.615Z,15.30
2018-07-19T02:27:31.442Z,15.20
2018-07-19T02:30:00.695Z,15.20
2018-07-19T02:32:29.516Z,15.20
2018-07-19T02:34:58.335Z,15.20
2018-07-19T02:37:27.162Z,15.10
2018-07-19T02:39:55.964Z,15.10
2018-07-19T02:42:24.779Z,15.00
2018-07-19T02:44:54.215Z,15.00
2018-07-19T02:47:23.027Z,15.00
2018-07-19T02:49:51.839Z,15.00
2018-07-19T02:52:20.639Z,15.00
2018-07-19T02:54:49.454Z,15.00
2018-07-19T02:57:18.267Z,15.00
2018-07-19T02:59:47.815Z,14.90
2018-07-19T03:02:16.635Z,14.90
2018-07-19T03:04:45.439Z,14.90
2018-07-19T03:07:14.243Z,14.80
2018-07-19T03:09:43.063Z,14.70
2018-07-19T03:12:11.879Z,14.70
2018-07-19T03:14:40.706Z,14.70
2018-07-19T03:17:09.647Z,14.70
2018-07-19T03:19:38.471Z,14.70
2018-07-19T03:22:07.294Z,14.70
2018-07-19T03:24:36.106Z,14.70
2018-07-19T03:27:05.104Z,14.70
2018-07-19T03:29:33.939Z,14.70
2018-07-19T03:32:02.759Z,14.70
2018-07-19T03:34:31.583Z,14.70
2018-07-19T03:37:00.394Z,14.70
2018-07-19T03:39:29.214Z,14.70
2018-07-19T03:41:58.043Z,14.80
2018-07-19T03:44:26.854Z,14.80
2018-07-19T03:46:55.667Z,15.00
2018-07-19T03:49:24.474Z,15.00
2018-07-19T03:51:53.303Z,15.20
2018-07-19T03:54:22.128Z,15.40
2018-07-19T03:56:50.951Z,15.50
2018-07-19T03:59:19.863Z,15.70
2018-07-19T04:01:48.729Z,15.90
2018-07-19T04:04:18.090Z,16.10
2018-07-19T04:06:47.427Z,16.30
2018-07-19T04:09:16.243Z,16.40
2018-07-19T04:11:45.071Z,16.60
2018-07-19T04:14:13.883Z,16.80
2018-07-19T04:16:42.703Z,16.90
2018-07-19T04:19:11.915Z,17.10
2018-07-19T04:21:40.710Z,17.30
2018-07-19T04:24:09.515Z,17.50
2018-07-19T04:26:38.326Z,17.60
2018-07-19T04:29:07.133Z,17.80
2018-07-19T04:31:35.945Z,17.90
2018-07-19T04:34:06.054Z,18.10
2018-07-19T04:36:34.880Z,18.30
2018-07-19T04:39:04.391Z,18.50
2018-07-19T04:41:33.207Z,18.70
2018-07-19T04:44:02.019Z,18.90
2018-07-19T04:46:30.828Z,19.10
2018-07-19T04:48:59.631Z,19.40
2018-07-19T04:51:28.445Z,19.60
2018-07-19T04:53:57.263Z,19.90
2018-07-19T04:56:26.070Z,20.10
2018-07-19T04:58:54.972Z,20.30
2018-07-19T05:01:23.811Z,20.50
2018-07-19T05:03:52.617Z,20.60
2018-07-19T05:06:21.431Z,20.80
2018-07-19T05:08:50.547Z,21.00
2018-07-19T05:11:19.366Z,21.30
2018-07-19T05:13:48.451Z,21.70
2018-07-19T05:16:17.267Z,22.00
2018-07-19T05:18:46.070Z,22.40
2018-07-19T05:21:14.878Z,22.90
2018-07-19T05:23:43.687Z,23.30
2018-07-19T05:26:12.503Z,23.80
2018-07-19T05:28:41.315Z,24.10
2018-07-19T05:31:10.880Z,24.60
2018-07-19T05:33:39.686Z,25.10
2018-07-19T05:36:08.794Z,25.80
2018-07-19T05:38:37.603Z,26.20
2018-07-19T05:41:06.872Z,26.90
2018-07-19T05:43:35.803Z,27.80
2018-07-19T05:46:04.855Z,29.00
2018-07-19T05:48:34.214Z,30.50
2018-07-19T05:51:03.020Z,31.90
2018-07-19T05:53:31.856Z,32.80
2018-07-19T05:56:00.683Z,33.80
2018-07-19T05:58:29.495Z,34.20
2018-07-19T06:00:58.322Z,34.60
2018-07-19T06:03:27.123Z,35.20
2018-07-19T06:05:55.918Z,35.60
2018-07-19T06:08:24.731Z,35.70
2018-07-19T06:10:53.539Z,36.10
2018-07-19T06:13:22.343Z,36.50
2018-07-19T06:15:51.152Z,36.50
2018-07-19T06:18:19.958Z,36.50
2018-07-19T06:20:48.820Z,36.80
2018-07-19T06:23:18.108Z,36.40
2018-07-19T06:25:47.015Z,36.10
2018-07-19T06:28:16.101Z,35.90
2018-07-19T06:30:44.880Z,36.00
2018-07-19T06:33:13.691Z,35.90
2018-07-19T06:35:42.487Z,36.00
2018-07-19T06:38:11.375Z,36.90
2018-07-19T06:40:40.216Z,37.60
2018-07-19T06:43:10.354Z,37.90
2018-07-19T06:45:39.150Z,38.00
2018-07-19T06:48:07.963Z,37.90
2018-07-19T06:50:37.581Z,37.30
2018-07-19T06:53:06.734Z,35.30
2018-07-19T06:55:36.042Z,35.20
2018-07-19T06:58:05.284Z,35.50
2018-07-19T07:03:02.812Z,35.70
2018-07-19T07:05:31.611Z,35.10
2018-07-19T07:10:29.693Z,35.40
2018-07-19T07:12:58.607Z,35.60
2018-07-19T07:15:27.423Z,34.70
2018-07-19T07:17:56.297Z,34.50
2018-07-19T07:20:25.154Z,34.10
2018-07-19T07:22:54.027Z,33.50
2018-07-19T07:25:22.866Z,32.20
2018-07-19T07:30:20.539Z,30.30
2018-07-19T07:32:49.351Z,30.10
2018-07-19T07:35:18.171Z,30.00
2018-07-19T07:37:46.978Z,29.70
2018-07-19T07:40:15.791Z,29.40
2018-07-19T07:42:44.595Z,29.70
2018-07-19T07:47:41.987Z,29.40
2018-07-19T07:50:10.803Z,29.50
2018-07-19T07:52:39.615Z,29.50
2018-07-19T07:55:08.426Z,29.60
2018-07-19T07:57:37.230Z,29.50
2018-07-19T08:00:06.458Z,29.30
2018-07-19T08:02:35.417Z,29.20
2018-07-19T08:05:04.364Z,29.00
2018-07-19T08:07:33.166Z,29.10
2018-07-19T08:10:02.057Z,29.10
2018-07-19T08:12:30.919Z,29.10
2018-07-19T08:14:59.741Z,29.30
2018-07-19T08:17:29.381Z,29.20
2018-07-19T08:19:58.311Z,29.00
2018-07-19T08:22:27.153Z,29.00
2018-07-19T08:24:55.977Z,28.60
2018-07-19T08:27:24.867Z,28.20
2018-07-19T08:29:53.713Z,28.40
2018-07-19T08:32:22.565Z,28.50
2018-07-19T08:34:51.367Z,28.70
2018-07-19T08:37:20.203Z,28.80
2018-07-19T08:39:49.025Z,29.00
2018-07-19T08:42:17.844Z,29.10
2018-07-19T08:47:15.988Z,28.80
2018-07-19T08:49:46.407Z,28.80
2018-07-19T08:52:16.059Z,29.10
2018-07-19T08:54:44.871Z,29.20
2018-07-19T08:57:14.100Z,29.50
2018-07-19T08:59:42.935Z,29.60
2018-07-19T09:02:11.885Z,29.50
2018-07-19T09:04:40.975Z,29.70
2018-07-19T09:07:09.796Z,29.80
2018-07-19T09:09:38.615Z,29.70
2018-07-19T09:12:07.439Z,29.40
2018-07-19T09:14:36.257Z,29.50
2018-07-19T09:17:05.292Z,29.20
2018-07-19T09:19:34.187Z,28.70
2018-07-19T09:22:02.945Z,28.00
2018-07-19T09:24:31.755Z,28.30
2018-07-19T09:29:29.163Z,29.00
2018-07-19T09:31:58.747Z,29.20
2018-07-19T09:34:27.615Z,29.50
2018-07-19T09:36:56.475Z,29.40
2018-07-19T09:39:25.341Z,29.40
2018-07-19T09:41:54.466Z,29.00
2018-07-19T09:44:23.243Z,29.00
2018-07-19T09:46:52.075Z,29.10
2018-07-19T09:49:20.906Z,28.80
2018-07-19T09:51:49.717Z,28.50
2018-07-19T09:54:30.131Z,28.90
2018-07-19T09:56:58.960Z,29.30
2018-07-19T09:59:27.878Z,29.50
2018-07-19T10:01:56.760Z,29.70
2018-07-19T10:04:25.559Z,29.70
2018-07-19T10:06:54.362Z,29.80
2018-07-19T10:09:23.178Z,29.70
2018-07-19T10:11:52.012Z,29.60
2018-07-19T10:16:49.419Z,29.50
2018-07-19T10:19:18.235Z,28.80
2018-07-19T10:21:47.068Z,28.80
2018-07-19T10:24:15.937Z,28.80
2018-07-19T10:26:44.696Z,29.00
2018-07-19T10:29:13.515Z,29.20
2018-07-19T10:31:42.319Z,29.00
2018-07-19T10:34:11.186Z,29.00
2018-07-19T10:36:39.947Z,29.00
2018-07-19T10:39:09.343Z,29.10
2018-07-19T10:41:38.431Z,28.90
2018-07-19T10:44:07.643Z,28.80
2018-07-19T10:46:36.458Z,28.60
2018-07-19T10:49:05.270Z,28.30
2018-07-19T10:51:34.115Z,27.70
2018-07-19T10:54:02.929Z,27.70
2018-07-19T10:56:32.570Z,27.40
2018-07-19T10:59:02.198Z,27.20
2018-07-19T11:01:31.068Z,27.00
2018-07-19T11:03:59.914Z,27.00
2018-07-19T11:06:28.725Z,27.00
2018-07-19T11:08:57.571Z,26.80
2018-07-19T11:11:26.398Z,26.70
2018-07-19T11:13:55.206Z,26.70
2018-07-19T11:16:24.222Z,26.70
2018-07-19T11:18:53.704Z,26.70
2018-07-19T11:21:22.821Z,26.70
2018-07-19T11:23:52.463Z,26.80
2018-07-19T11:26:21.275Z,26.80
2018-07-19T11:28:50.420Z,26.60
2018-07-19T11:31:19.761Z,26.60
2018-07-19T11:33:48.571Z,26.50
2018-07-19T11:36:17.395Z,26.30
2018-07-19T11:38:46.195Z,26.20
2018-07-19T11:41:15.095Z,26.20
2018-07-19T11:43:44.061Z,26.20
2018-07-19T11:46:12.878Z,26.00
2018-07-19T11:48:41.691Z,25.90
2018-07-19T11:51:10.527Z,25.60
2018-07-19T11:53:39.355Z,25.30
2018-07-19T11:56:08.199Z,25.10
2018-07-19T11:58:37.017Z,25.30
2018-07-19T12:01:05.833Z,25.50
2018-07-19T12:03:34.879Z,25.80
2018-07-19T12:06:03.874Z,25.90
2018-07-19T12:08:32.730Z,25.90
2018-07-19T12:11:01.551Z,25.80
2018-07-19T12:13:31.645Z,26.00
2018-07-19T12:16:00.476Z,25.90
2018-07-19T12:18:30.199Z,25.90
2018-07-19T12:20:59.031Z,25.80
2018-07-19T12:23:27.855Z,25.90
2018-07-19T12:25:56.671Z,26.00
2018-07-19T12:28:25.486Z,26.00
2018-07-19T12:30:54.295Z,25.90
2018-07-19T12:33:23.241Z,25.70
2018-07-19T12:35:52.068Z,25.50
2018-07-19T12:38:20.895Z,25.10
2018-07-19T12:40:49.710Z,25.00
2018-07-19T12:43:18.542Z,25.10
2018-07-19T12:45:47.363Z,25.20
2018-07-19T12:48:17.582Z,25.30
2018-07-19T12:50:46.415Z,25.20
2018-07-19T12:53:15.231Z,25.20
2018-07-19T12:55:44.047Z,25.10
2018-07-19T12:58:13.424Z,25.10
2018-07-19T13:00:42.323Z,25.10
2018-07-19T13:03:11.142Z,25.20
2018-07-19T13:05:39.991Z,25.20
2018-07-19T13:08:08.804Z,25.40
2018-07-19T13:10:37.612Z,25.60
2018-07-19T13:13:06.456Z,25.70
2018-07-19T13:15:35.280Z,25.50
2018-07-19T13:18:04.373Z,25.20
2018-07-19T13:20:33.295Z,25.00
2018-07-19T13:23:02.104Z,25.10
2018-07-19T13:25:30.929Z,25.20
2018-07-19T13:27:59.752Z,25.20
2018-07-19T13:30:28.571Z,25.40
2018-07-19T13:32:57.471Z,25.50
2018-07-19T13:35:26.575Z,25.60
2018-07-19T13:37:55.367Z,25.50
2018-07-19T13:40:24.264Z,25.30
2018-07-19T13:42:53.131Z,25.10
2018-07-19T13:45:21.955Z,25.00
2018-07-19T13:47:50.759Z,25.10
2018-07-19T13:50:19.570Z,25.00
2018-07-19T13:52:59.950Z,25.10
2018-07-19T13:55:28.833Z,25.20
2018-07-19T13:57:57.635Z,25.30
2018-07-19T14:00:26.543Z,25.30
2018-07-19T14:02:55.430Z,25.50
2018-07-19T14:05:24.265Z,25.60
2018-07-19T14:07:53.080Z,25.60
2018-07-19T14:10:22.020Z,25.50
2018-07-19T14:12:50.803Z,25.20
2018-07-19T14:15:19.647Z,25.20
2018-07-19T14:17:48.458Z,25.20
2018-07-19T14:20:17.272Z,25.30
2018-07-19T14:22:46.099Z,25.40
2018-07-19T14:25:14.903Z,25.40
2018-07-19T14:27:43.820Z,25.50
2018-07-19T14:30:12.735Z,25.40
2018-07-19T14:32:41.565Z,25.30
2018-07-19T14:35:11.022Z,25.20
2018-07-19T14:37:39.861Z,25.30
2018-07-19T14:40:08.677Z,25.30
2018-07-19T14:42:37.494Z,25.30
2018-07-19T14:45:06.312Z,25.40
2018-07-19T14:47:35.137Z,25.30
2018-07-19T14:50:04.146Z,25.30
2018-07-19T14:52:32.963Z,25.30
2018-07-19T14:55:01.783Z,25.10
2018-07-19T14:57:30.595Z,25.00
2018-07-19T14:59:59.495Z,25.00
2018-07-19T15:02:28.393Z,25.10
2018-07-19T15:04:57.614Z,25.30
2018-07-19T15:07:26.480Z,25.40
2018-07-19T15:09:55.274Z,25.40
2018-07-19T15:12:24.099Z,25.30
2018-07-19T15:14:52.949Z,25.30
2018-07-19T15:17:21.750Z,25.20
2018-07-19T15:19:50.575Z,25.20
2018-07-19T15:22:19.396Z,25.30
2018-07-19T15:24:48.210Z,25.40
2018-07-19T15:27:17.027Z,25.60
2018-07-19T15:29:45.882Z,25.70
2018-07-19T15:32:14.694Z,25.60
2018-07-19T15:34:43.512Z,25.70
2018-07-19T15:37:12.659Z,25.70
2018-07-19T15:39:41.745Z,25.80
2018-07-19T15:42:10.636Z,25.70
2018-07-19T15:44:39.495Z,25.70
2018-07-19T15:47:08.308Z,25.70
2018-07-19T15:49:37.131Z,25.80
2018-07-19T15:52:05.963Z,25.80
2018-07-19T15:54:34.792Z,25.70
2018-07-19T15:57:03.594Z,25.60
2018-07-19T16:04:29.603Z,25.60
2018-07-19T16:06:58.470Z,25.60
2018-07-19T16:09:27.307Z,25.70
2018-07-19T16:11:56.115Z,25.70
2018-07-19T16:14:24.916Z,25.80
2018-07-19T16:16:53.731Z,25.60
2018-07-19T16:19:22.537Z,25.60
2018-07-19T16:21:51.356Z,25.60
2018-07-19T16:24:20.163Z,25.60
2018-07-19T16:29:17.572Z,25.60
2018-07-19T16:31:46.379Z,25.50
2018-07-19T16:34:15.188Z,25.50
2018-07-19T16:36:44.047Z,25.50
2018-07-19T16:39:12.860Z,25.50
2018-07-19T16:41:41.670Z,25.50
2018-07-19T16:44:10.476Z,25.40
2018-07-19T16:46:39.282Z,25.40
2018-07-19T16:49:08.166Z,25.30
2018-07-19T16:51:36.975Z,25.20
2018-07-19T16:54:06.185Z,25.10
2018-07-19T16:56:35.061Z,25.10
2018-07-19T16:59:04.323Z,25.10
2018-07-19T17:01:33.340Z,25.10
2018-07-19T17:04:02.581Z,25.10
2018-07-19T17:06:31.435Z,25.20
2018-07-19T17:09:00.251Z,25.10
2018-07-19T17:11:29.258Z,25.20
2018-07-19T17:13:58.052Z,25.10
2018-07-19T17:16:26.907Z,25.00
2018-07-19T17:18:56.241Z,24.90
2018-07-19T17:21:25.095Z,24.80
2018-07-19T17:23:54.028Z,24.80
2018-07-19T17:26:23.227Z,24.90
2018-07-19T17:28:52.116Z,24.80
2018-07-19T17:31:21.642Z,24.80
2018-07-19T17:33:50.595Z,24.70
2018-07-19T17:36:19.438Z,24.70
2018-07-19T17:38:48.300Z,24.80
2018-07-19T17:41:17.121Z,24.70
2018-07-19T17:43:46.012Z,24.70
2018-07-19T17:46:14.907Z,24.60
2018-07-19T17:48:43.741Z,24.60
2018-07-19T17:51:12.546Z,24.60
2018-07-19T17:53:41.367Z,24.60
2018-07-19T17:56:10.176Z,24.50
2018-07-19T17:58:39.035Z,24.50
2018-07-19T18:01:08.384Z,24.40
2018-07-19T18:03:37.203Z,24.50
2018-07-19T18:06:06.020Z,24.50
2018-07-19T18:08:34.826Z,24.40
2018-07-19T18:11:03.680Z,24.40
2018-07-19T18:13:32.451Z,24.30
2018-07-19T18:16:01.268Z,24.20
2018-07-19T18:18:30.076Z,24.20
2018-07-19T18:20:58.887Z,24.10
2018-07-19T18:23:27.802Z,24.00
2018-07-19T18:25:56.648Z,24.00
2018-07-19T18:28:25.462Z,24.00
2018-07-19T18:30:54.397Z,23.90
2018-07-19T18:33:23.214Z,23.90
2018-07-19T18:35:52.020Z,23.80
2018-07-19T18:38:20.826Z,23.80
2018-07-19T18:40:49.957Z,23.70
2018-07-19T18:43:19.205Z,23.60
2018-07-19T18:45:48.015Z,23.50
2018-07-19T18:48:16.836Z,23.40
2018-07-19T18:50:45.966Z,23.40
2018-07-19T18:53:14.852Z,23.30
2018-07-19T18:55:43.669Z,23.20
2018-07-19T18:58:12.475Z,23.10
2018-07-19T19:00:41.312Z,23.10
2018-07-19T19:03:10.131Z,23.00
2018-07-19T19:05:38.940Z,23.00
2018-07-19T19:08:07.863Z,22.80
2018-07-19T19:10:36.688Z,22.70
2018-07-19T19:13:05.491Z,22.60
2018-07-19T19:15:34.303Z,22.50
2018-07-19T19:18:03.115Z,22.30
2018-07-19T19:20:31.963Z,22.20
2018-07-19T19:23:00.779Z,22.10
2018-07-19T19:25:29.591Z,22.00
2018-07-19T19:27:58.403Z,21.90
2018-07-19T19:30:27.227Z,21.80
2018-07-19T19:32:56.219Z,21.70
2018-07-19T19:35:25.039Z,21.70
2018-07-19T19:37:53.948Z,21.60
2018-07-19T19:40:22.749Z,21.60
2018-07-19T19:42:51.549Z,21.50
2018-07-19T19:47:48.955Z,21.30
2018-07-19T19:50:17.781Z,21.20
2018-07-19T19:52:46.610Z,21.20
2018-07-19T19:55:15.457Z,21.10
2018-07-19T19:57:44.323Z,21.00
2018-07-19T20:00:13.151Z,21.00
2018-07-19T20:02:41.955Z,21.00
2018-07-19T20:05:10.782Z,21.00
2018-07-19T20:07:39.602Z,21.00
2018-07-19T20:10:08.451Z,21.00
2018-07-19T20:12:37.276Z,21.00
2018-07-19T20:15:06.328Z,20.90
2018-07-19T20:17:35.232Z,20.80
2018-07-19T20:20:04.559Z,20.80
2018-07-19T20:22:33.370Z,20.80
2018-07-19T20:25:02.179Z,20.70
2018-07-19T20:27:31.004Z,20.70
2018-07-19T20:29:59.818Z,20.60
2018-07-19T20:32:29.255Z,20.60
2018-07-19T20:34:58.311Z,20.50
2018-07-19T20:37:27.346Z,20.50
2018-07-19T20:39:56.128Z,20.40
2018-07-19T20:42:26.540Z,20.50
2018-07-19T20:44:55.435Z,20.40
2018-07-19T20:47:24.769Z,20.40
2018-07-19T20:49:53.556Z,20.40
2018-07-19T20:52:22.657Z,20.30
2018-07-19T20:54:51.453Z,20.30
2018-07-19T20:57:20.307Z,20.20
2018-07-19T20:59:49.131Z,20.10
2018-07-19T21:02:18.082Z,20.10
2018-07-19T21:04:47.051Z,20.10
2018-07-19T21:07:16.221Z,20.10
2018-07-19T21:09:45.220Z,20.00
2018-07-19T21:12:14.032Z,19.90
2018-07-19T21:17:11.503Z,19.80
2018-07-19T21:24:37.526Z,19.70
2018-07-19T21:27:06.360Z,19.70
2018-07-19T21:29:35.175Z,19.60
2018-07-19T21:32:03.999Z,19.50
2018-07-19T21:34:32.868Z,19.40
2018-07-19T21:37:02.590Z,19.40
2018-07-19T21:39:31.396Z,19.30
2018-07-19T21:42:00.231Z,19.30
2018-07-19T21:44:29.048Z,19.30
2018-07-19T21:46:58.739Z,19.20
2018-07-19T21:51:56.068Z,19.10
2018-07-19T21:54:24.946Z,19.10
2018-07-19T21:56:53.766Z,19.10
2018-07-19T21:59:22.587Z,19.00
2018-07-19T22:01:51.421Z,19.00
2018-07-19T22:04:20.227Z,19.00
2018-07-19T22:06:49.051Z,19.00
2018-07-19T22:09:17.876Z,18.90
2018-07-19T22:11:46.703Z,19.00
2018-07-19T22:14:15.515Z,18.90
2018-07-19T22:16:44.336Z,18.80
2018-07-19T22:19:13.153Z,18.70
2018-07-19T22:21:42.015Z,18.70
2018-07-19T22:24:10.831Z,18.60
2018-07-19T22:26:39.859Z,18.60
2018-07-19T22:29:08.667Z,18.50
2018-07-19T22:31:37.490Z,18.50
2018-07-19T22:34:06.319Z,18.50
2018-07-19T22:36:35.127Z,18.40
2018-07-19T22:39:07.114Z,18.40
2018-07-19T22:41:36.028Z,18.30
2018-07-19T22:44:04.850Z,18.30
2018-07-19T22:46:33.662Z,18.20
2018-07-19T22:49:02.506Z,18.20
2018-07-19T22:51:31.334Z,18.10
2018-07-19T22:54:00.162Z,18.10
2018-07-19T22:56:28.972Z,18.00
2018-07-19T22:58:57.850Z,18.00
2018-07-19T23:01:26.687Z,18.00
2018-07-19T23:03:55.492Z,17.90
2018-07-19T23:06:24.303Z,17.90
2018-07-19T23:08:53.135Z,17.90
2018-07-19T23:11:22.004Z,17.90
2018-07-19T23:13:50.819Z,17.90
2018-07-19T23:16:19.799Z,17.80
2018-07-19T23:18:48.624Z,17.80
2018-07-19T23:21:17.440Z,17.70
2018-07-19T23:23:46.251Z,17.70
2018-07-19T23:26:15.063Z,17.70
2018-07-19T23:28:43.891Z,17.60
2018-07-19T23:31:12.699Z,17.60
2018-07-19T23:33:41.518Z,17.60
2018-07-19T23:37:13.639Z,17.60
2018-07-19T23:39:49.690Z,17.50
2018-07-19T23:42:21.780Z,17.50
2018-07-19T23:44:57.099Z,17.50
2018-07-19T23:47:29.274Z,17.40
2018-07-19T23:49:58.085Z,17.40
2018-07-19T23:52:26.894Z,17.40
2018-07-19T23:57:24.308Z,17.30
2018-07-19T23:59:53.152Z,17.30
